sensor_id;sensor_type;location;lat;lon;timestamp;pressure;altitude;pressure_sealevel;temperature;humidity
22206;BME280;11272;50.104;8.754;2023-03-20T00:00:32;100756.97;;;12.14;73.25
22206;BME280;11272;50.104;8.754;2023-03-20T00:02:58;100762.28;;;12.14;73.27
22206;BME280;11272;50.104;8.754;2023-03-20T00:05:25;100760.59;;;12.11;73.10
22206;BME280;11272;50.104;8.754;2023-03-20T00:07:53;100773.06;;;12.08;73.35
22206;BME280;11272;50.104;8.754;2023-03-20T00:10:20;100768.72;;;12.05;73.56
22206;BME280;11272;50.104;8.754;2023-03-20T00:12:48;100763.41;;;12.04;73.53
22206;BME280;11272;50.104;8.754;2023-03-20T00:15:29;100766.06;;;12.04;73.55
22206;BME280;11272;50.104;8.754;2023-03-20T00:17:56;100773.19;;;12.03;73.35
22206;BME280;11272;50.104;8.754;2023-03-20T00:20:22;100777.69;;;12.01;73.31
22206;BME280;11272;50.104;8.754;2023-03-20T00:22:48;100783.00;;;12.01;73.57
22206;BME280;11272;50.104;8.754;2023-03-20T00:25:16;100789.22;;;12.00;73.48
22206;BME280;11272;50.104;8.754;2023-03-20T00:27:43;100787.50;;;11.98;73.30
22206;BME280;11272;50.104;8.754;2023-03-20T00:30:19;100779.59;;;11.95;73.32
22206;BME280;11272;50.104;8.754;2023-03-20T00:32:48;100783.13;;;11.95;73.43
22206;BME280;11272;50.104;8.754;2023-03-20T00:35:26;100782.28;;;11.93;73.43
22206;BME280;11272;50.104;8.754;2023-03-20T00:37:53;100782.28;;;11.92;73.55
22206;BME280;11272;50.104;8.754;2023-03-20T00:40:19;100781.38;;;11.93;73.42
22206;BME280;11272;50.104;8.754;2023-03-20T00:42:51;100789.47;;;11.90;73.22
22206;BME280;11272;50.104;8.754;2023-03-20T00:45:21;100785.91;;;11.89;73.27
22206;BME280;11272;50.104;8.754;2023-03-20T00:47:50;100788.56;;;11.89;73.43
22206;BME280;11272;50.104;8.754;2023-03-20T00:50:22;100785.03;;;11.89;73.46
22206;BME280;11272;50.104;8.754;2023-03-20T00:52:50;100787.69;;;11.90;73.46
22206;BME280;11272;50.104;8.754;2023-03-20T00:55:21;100788.50;;;11.92;73.26
22206;BME280;11272;50.104;8.754;2023-03-20T00:57:54;100787.56;;;11.95;72.98
22206;BME280;11272;50.104;8.754;2023-03-20T01:00:25;100789.38;;;11.93;72.84
22206;BME280;11272;50.104;8.754;2023-03-20T01:02:53;100787.63;;;11.92;72.91
22206;BME280;11272;50.104;8.754;2023-03-20T01:05:22;100793.94;;;11.86;73.04
22206;BME280;11272;50.104;8.754;2023-03-20T01:07:48;100794.03;;;11.81;73.29
22206;BME280;11272;50.104;8.754;2023-03-20T01:10:14;100788.81;;;11.77;73.02
22206;BME280;11272;50.104;8.754;2023-03-20T01:12:40;100789.78;;;11.74;73.20
22206;BME280;11272;50.104;8.754;2023-03-20T01:15:17;100797.78;;;11.73;73.32
22206;BME280;11272;50.104;8.754;2023-03-20T01:17:43;100796.94;;;11.69;73.60
22206;BME280;11272;50.104;8.754;2023-03-20T01:20:35;100794.31;;;11.66;73.29
22206;BME280;11272;50.104;8.754;2023-03-20T01:23:01;100803.13;;;11.70;73.35
22206;BME280;11272;50.104;8.754;2023-03-20T01:25:26;100805.78;;;11.70;73.58
22206;BME280;11272;50.104;8.754;2023-03-20T01:27:53;100804.06;;;11.67;73.66
22206;BME280;11272;50.104;8.754;2023-03-20T01:30:24;100796.09;;;11.67;73.64
22206;BME280;11272;50.104;8.754;2023-03-20T01:32:51;100791.66;;;11.66;73.64
22206;BME280;11272;50.104;8.754;2023-03-20T01:35:20;100795.28;;;11.64;73.81
22206;BME280;11272;50.104;8.754;2023-03-20T01:37:47;100795.31;;;11.61;73.59
22206;BME280;11272;50.104;8.754;2023-03-20T01:40:26;100797.19;;;11.56;73.84
22206;BME280;11272;50.104;8.754;2023-03-20T01:42:52;100798.09;;;11.56;73.94
22206;BME280;11272;50.104;8.754;2023-03-20T01:45:23;100794.56;;;11.54;73.78
22206;BME280;11272;50.104;8.754;2023-03-20T01:47:51;100805.19;;;11.54;74.00
22206;BME280;11272;50.104;8.754;2023-03-20T01:50:24;100799.84;;;11.56;74.02
22206;BME280;11272;50.104;8.754;2023-03-20T01:53:02;100807.81;;;11.57;73.85
22206;BME280;11272;50.104;8.754;2023-03-20T01:55:31;100799.03;;;11.54;74.25
22206;BME280;11272;50.104;8.754;2023-03-20T01:58:03;100804.31;;;11.55;74.02
22206;BME280;11272;50.104;8.754;2023-03-20T02:00:32;100806.06;;;11.56;74.19
22206;BME280;11272;50.104;8.754;2023-03-20T02:02:58;100803.50;;;11.52;73.93
22206;BME280;11272;50.104;8.754;2023-03-20T02:05:45;100800.88;;;11.49;74.40
22206;BME280;11272;50.104;8.754;2023-03-20T02:08:27;100806.25;;;11.47;74.20
22206;BME280;11272;50.104;8.754;2023-03-20T02:10:55;100803.53;;;11.49;74.40
22206;BME280;11272;50.104;8.754;2023-03-20T02:13:28;100803.59;;;11.47;74.30
22206;BME280;11272;50.104;8.754;2023-03-20T02:18:51;100803.59;;;11.46;74.32
22206;BME280;11272;50.104;8.754;2023-03-20T02:21:49;100806.25;;;11.47;74.11
22206;BME280;11272;50.104;8.754;2023-03-20T02:27:08;100813.44;;;11.42;74.39
22206;BME280;11272;50.104;8.754;2023-03-20T02:43:37;100811.88;;;11.30;74.87
22206;BME280;11272;50.104;8.754;2023-03-20T02:46:22;100826.06;;;11.31;74.97
22206;BME280;11272;50.104;8.754;2023-03-20T02:51:40;100826.06;;;11.31;75.05
22206;BME280;11272;50.104;8.754;2023-03-20T02:54:42;100825.97;;;11.34;75.01
22206;BME280;11272;50.104;8.754;2023-03-20T03:00:02;100825.09;;;11.33;74.97
22206;BME280;11272;50.104;8.754;2023-03-20T03:02:35;100832.19;;;11.34;75.10
22206;BME280;11272;50.104;8.754;2023-03-20T03:05:11;100828.63;;;11.35;75.35
22206;BME280;11272;50.104;8.754;2023-03-20T03:07:40;100830.47;;;11.32;75.20
22206;BME280;11272;50.104;8.754;2023-03-20T03:10:12;100826.88;;;11.33;75.01
22206;BME280;11272;50.104;8.754;2023-03-20T03:12:45;100822.41;;;11.35;75.01
22206;BME280;11272;50.104;8.754;2023-03-20T03:15:20;100829.50;;;11.36;75.22
22206;BME280;11272;50.104;8.754;2023-03-20T03:17:49;100828.63;;;11.35;75.47
22206;BME280;11272;50.104;8.754;2023-03-20T03:20:24;100834.00;;;11.32;75.67
22206;BME280;11272;50.104;8.754;2023-03-20T03:22:53;100824.22;;;11.33;75.77
22206;BME280;11272;50.104;8.754;2023-03-20T03:25:23;100827.75;;;11.35;75.46
22206;BME280;11272;50.104;8.754;2023-03-20T03:28:06;100833.88;;;11.38;75.59
22206;BME280;11272;50.104;8.754;2023-03-20T03:30:36;100824.13;;;11.39;75.43
22206;BME280;11272;50.104;8.754;2023-03-20T03:33:21;100825.00;;;11.38;75.69
22206;BME280;11272;50.104;8.754;2023-03-20T03:35:48;100827.66;;;11.39;75.76
22206;BME280;11272;50.104;8.754;2023-03-20T03:43:53;100825.88;;;11.40;75.63
22206;BME280;11272;50.104;8.754;2023-03-20T03:46:26;100828.50;;;11.42;75.71
22206;BME280;11272;50.104;8.754;2023-03-20T03:48:59;100833.81;;;11.43;75.86
22206;BME280;11272;50.104;8.754;2023-03-20T03:51:28;100830.19;;;11.46;75.77
22206;BME280;11272;50.104;8.754;2023-03-20T03:54:10;100836.41;;;11.46;75.45
22206;BME280;11272;50.104;8.754;2023-03-20T03:56:40;100841.75;;;11.45;75.31
22206;BME280;11272;50.104;8.754;2023-03-20T03:59:12;100835.53;;;11.46;75.59
22206;BME280;11272;50.104;8.754;2023-03-20T04:01:41;100843.50;;;11.44;75.48
22206;BME280;11272;50.104;8.754;2023-03-20T04:04:09;100854.16;;;11.44;75.74
22206;BME280;11272;50.104;8.754;2023-03-20T04:06:37;100855.09;;;11.43;75.59
22206;BME280;11272;50.104;8.754;2023-03-20T04:09:05;100848.84;;;11.44;75.75
22206;BME280;11272;50.104;8.754;2023-03-20T04:11:30;100856.78;;;11.46;75.69
22206;BME280;11272;50.104;8.754;2023-03-20T04:13:56;100855.00;;;11.48;75.91
22206;BME280;11272;50.104;8.754;2023-03-20T04:16:23;100862.03;;;11.50;75.56
22206;BME280;11272;50.104;8.754;2023-03-20T04:18:50;100852.28;;;11.49;75.66
22206;BME280;11272;50.104;8.754;2023-03-20T04:21:16;100855.88;;;11.48;75.67
22206;BME280;11272;50.104;8.754;2023-03-20T04:23:43;100861.19;;;11.48;75.47
22206;BME280;11272;50.104;8.754;2023-03-20T04:26:09;100856.78;;;11.46;75.40
22206;BME280;11272;50.104;8.754;2023-03-20T04:28:35;100859.53;;;11.41;75.56
22206;BME280;11272;50.104;8.754;2023-03-20T04:31:33;100861.41;;;11.36;75.70
22206;BME280;11272;50.104;8.754;2023-03-20T04:34:38;100867.69;;;11.32;75.89
22206;BME280;11272;50.104;8.754;2023-03-20T04:37:28;100872.22;;;11.27;75.69
22206;BME280;11272;50.104;8.754;2023-03-20T04:40:00;100869.50;;;11.28;75.73
22206;BME280;11272;50.104;8.754;2023-03-20T04:42:26;100870.38;;;11.29;75.81
22206;BME280;11272;50.104;8.754;2023-03-20T04:44:57;100870.38;;;11.29;75.89
22206;BME280;11272;50.104;8.754;2023-03-20T04:47:23;100873.94;;;11.28;76.36
22206;BME280;11272;50.104;8.754;2023-03-20T04:49:49;100878.34;;;11.29;76.22
22206;BME280;11272;50.104;8.754;2023-03-20T04:52:16;100882.75;;;11.31;76.23
22206;BME280;11272;50.104;8.754;2023-03-20T04:54:43;100885.34;;;11.36;76.68
22206;BME280;11272;50.104;8.754;2023-03-20T04:57:08;100886.16;;;11.38;76.80
22206;BME280;11272;50.104;8.754;2023-03-20T04:59:35;100889.69;;;11.40;76.74
22206;BME280;11272;50.104;8.754;2023-03-20T05:02:00;100888.78;;;11.43;76.41
22206;BME280;11272;50.104;8.754;2023-03-20T05:04:26;100896.69;;;11.44;76.58
22206;BME280;11272;50.104;8.754;2023-03-20T05:06:52;100900.25;;;11.45;76.72
22206;BME280;11272;50.104;8.754;2023-03-20T05:09:21;100905.59;;;11.43;76.62
22206;BME280;11272;50.104;8.754;2023-03-20T05:11:48;100896.78;;;11.41;76.71
22206;BME280;11272;50.104;8.754;2023-03-20T05:14:38;100899.44;;;11.39;76.88
22206;BME280;11272;50.104;8.754;2023-03-20T05:17:30;100897.66;;;11.40;76.71
22206;BME280;11272;50.104;8.754;2023-03-20T05:20:14;100894.13;;;11.39;76.80
22206;BME280;11272;50.104;8.754;2023-03-20T05:22:59;100890.56;;;11.40;76.92
22206;BME280;11272;50.104;8.754;2023-03-20T05:25:50;100880.84;;;11.38;76.80
22206;BME280;11272;50.104;8.754;2023-03-20T05:28:36;100879.94;;;11.40;77.16
22206;BME280;11272;50.104;8.754;2023-03-20T05:31:20;100882.53;;;11.44;77.10
22206;BME280;11272;50.104;8.754;2023-03-20T05:34:12;100871.88;;;11.45;77.05
22206;BME280;11272;50.104;8.754;2023-03-20T05:36:58;100866.53;;;11.47;77.12
22206;BME280;11272;50.104;8.754;2023-03-20T05:39:51;100859.38;;;11.49;76.73
22206;BME280;11272;50.104;8.754;2023-03-20T05:42:37;100865.72;;;11.43;76.67
22206;BME280;11272;50.104;8.754;2023-03-20T05:45:25;100864.00;;;11.39;76.93
22206;BME280;11272;50.104;8.754;2023-03-20T05:48:26;100866.66;;;11.39;76.94
22206;BME280;11272;50.104;8.754;2023-03-20T05:51:19;100871.06;;;11.40;77.12
22206;BME280;11272;50.104;8.754;2023-03-20T05:54:13;100877.25;;;11.42;77.25
22206;BME280;11272;50.104;8.754;2023-03-20T05:57:02;100871.94;;;11.42;76.96
22206;BME280;11272;50.104;8.754;2023-03-20T05:59:59;100891.47;;;11.38;76.92
22206;BME280;11272;50.104;8.754;2023-03-20T06:02:44;100895.06;;;11.37;77.23
22206;BME280;11272;50.104;8.754;2023-03-20T06:05:35;100883.56;;;11.36;77.16
22206;BME280;11272;50.104;8.754;2023-03-20T06:08:01;100882.69;;;11.36;77.49
22206;BME280;11272;50.104;8.754;2023-03-20T06:10:27;100884.53;;;11.31;77.44
22206;BME280;11272;50.104;8.754;2023-03-20T06:12:56;100883.69;;;11.27;77.63
22206;BME280;11272;50.104;8.754;2023-03-20T06:15:24;100890.75;;;11.30;77.65
22206;BME280;11272;50.104;8.754;2023-03-20T06:17:56;100897.78;;;11.34;77.72
22206;BME280;11272;50.104;8.754;2023-03-20T06:20:23;100894.13;;;11.39;77.87
22206;BME280;11272;50.104;8.754;2023-03-20T06:22:49;100892.31;;;11.43;77.60
22206;BME280;11272;50.104;8.754;2023-03-20T06:25:15;100896.66;;;11.47;77.46
22206;BME280;11272;50.104;8.754;2023-03-20T06:27:45;100891.34;;;11.47;77.40
22206;BME280;11272;50.104;8.754;2023-03-20T06:30:11;100894.00;;;11.47;77.82
22206;BME280;11272;50.104;8.754;2023-03-20T06:32:38;100895.63;;;11.54;77.40
22206;BME280;11272;50.104;8.754;2023-03-20T06:35:09;100897.38;;;11.55;77.54
22206;BME280;11272;50.104;8.754;2023-03-20T06:37:37;100899.09;;;11.59;77.64
22206;BME280;11272;50.104;8.754;2023-03-20T06:40:09;100904.38;;;11.61;77.31
22206;BME280;11272;50.104;8.754;2023-03-20T06:42:36;100906.97;;;11.65;77.18
22206;BME280;11272;50.104;8.754;2023-03-20T06:45:04;100908.72;;;11.66;76.94
22206;BME280;11272;50.104;8.754;2023-03-20T06:47:52;100911.41;;;11.65;77.09
22206;BME280;11272;50.104;8.754;2023-03-20T06:50:17;100916.72;;;11.65;76.96
22206;BME280;11272;50.104;8.754;2023-03-20T06:52:43;100922.91;;;11.65;76.82
22206;BME280;11272;50.104;8.754;2023-03-20T06:55:35;100911.44;;;11.63;76.99
22206;BME280;11272;50.104;8.754;2023-03-20T06:58:01;100908.81;;;11.60;76.83
22206;BME280;11272;50.104;8.754;2023-03-20T07:00:28;100911.47;;;11.62;77.08
22206;BME280;11272;50.104;8.754;2023-03-20T07:02:54;100907.88;;;11.64;77.10
22206;BME280;11272;50.104;8.754;2023-03-20T07:05:20;100906.91;;;11.68;77.09
22206;BME280;11272;50.104;8.754;2023-03-20T07:07:46;100915.72;;;11.73;77.21
22206;BME280;11272;50.104;8.754;2023-03-20T07:10:12;100922.75;;;11.77;76.91
22206;BME280;11272;50.104;8.754;2023-03-20T07:12:40;100925.41;;;11.77;77.05
22206;BME280;11272;50.104;8.754;2023-03-20T07:15:07;100925.41;;;11.77;76.84
22206;BME280;11272;50.104;8.754;2023-03-20T07:17:33;100922.75;;;11.76;76.98
22206;BME280;11272;50.104;8.754;2023-03-20T07:19:58;100926.31;;;11.76;76.69
22206;BME280;11272;50.104;8.754;2023-03-20T07:22:27;100924.50;;;11.78;76.43
22206;BME280;11272;50.104;8.754;2023-03-20T07:25:09;100927.94;;;11.85;76.79
22206;BME280;11272;50.104;8.754;2023-03-20T07:27:41;100922.53;;;11.90;76.60
22206;BME280;11272;50.104;8.754;2023-03-20T07:30:11;100926.00;;;11.92;76.62
22206;BME280;11272;50.104;8.754;2023-03-20T07:32:47;100932.19;;;11.94;76.28
22206;BME280;11272;50.104;8.754;2023-03-20T07:35:15;100933.97;;;11.93;76.40
22206;BME280;11272;50.104;8.754;2023-03-20T07:37:45;100936.63;;;11.95;76.36
22206;BME280;11272;50.104;8.754;2023-03-20T07:40:12;100939.22;;;11.98;76.47
22206;BME280;11272;50.104;8.754;2023-03-20T07:42:52;100944.53;;;11.98;76.76
22206;BME280;11272;50.104;8.754;2023-03-20T07:45:36;100947.25;;;11.95;76.79
22206;BME280;11272;50.104;8.754;2023-03-20T07:48:01;100945.56;;;11.91;77.15
22206;BME280;11272;50.104;8.754;2023-03-20T07:50:28;100949.31;;;11.80;77.22
22206;BME280;11272;50.104;8.754;2023-03-20T07:52:53;100947.56;;;11.78;77.81
22206;BME280;11272;50.104;8.754;2023-03-20T07:55:19;100942.34;;;11.70;78.14
22206;BME280;11272;50.104;8.754;2023-03-20T07:57:49;100949.44;;;11.70;78.45
22206;BME280;11272;50.104;8.754;2023-03-20T08:00:17;100949.41;;;11.71;78.82
22206;BME280;11272;50.104;8.754;2023-03-20T08:02:44;100951.25;;;11.69;79.01
22206;BME280;11272;50.104;8.754;2023-03-20T08:05:09;100956.56;;;11.69;79.40
22206;BME280;11272;50.104;8.754;2023-03-20T08:07:35;100954.81;;;11.68;79.22
22206;BME280;11272;50.104;8.754;2023-03-20T08:10:01;100951.28;;;11.66;79.57
22206;BME280;11272;50.104;8.754;2023-03-20T08:12:31;100953.03;;;11.67;79.92
22206;BME280;11272;50.104;8.754;2023-03-20T08:14:56;100952.16;;;11.68;80.25
22206;BME280;11272;50.104;8.754;2023-03-20T08:17:22;100960.06;;;11.74;80.64
22206;BME280;11272;50.104;8.754;2023-03-20T08:19:47;100956.44;;;11.78;80.89
22206;BME280;11272;50.104;8.754;2023-03-20T08:22:13;100959.91;;;11.82;81.34
22206;BME280;11272;50.104;8.754;2023-03-20T08:24:38;100965.22;;;11.84;81.45
22206;BME280;11272;50.104;8.754;2023-03-20T08:27:04;100972.31;;;11.81;81.57
22206;BME280;11272;50.104;8.754;2023-03-20T08:29:31;100976.91;;;11.75;81.61
22206;BME280;11272;50.104;8.754;2023-03-20T08:31:56;100979.72;;;11.64;81.33
22206;BME280;11272;50.104;8.754;2023-03-20T08:34:22;100982.50;;;11.57;82.14
22206;BME280;11272;50.104;8.754;2023-03-20T08:36:48;100979.94;;;11.49;83.12
22206;BME280;11272;50.104;8.754;2023-03-20T08:39:13;100988.00;;;11.45;84.01
22206;BME280;11272;50.104;8.754;2023-03-20T08:41:39;100990.91;;;11.28;84.76
22206;BME280;11272;50.104;8.754;2023-03-20T08:44:08;100984.84;;;11.20;85.98
22206;BME280;11272;50.104;8.754;2023-03-20T08:46:34;100980.50;;;11.16;86.31
22206;BME280;11272;50.104;8.754;2023-03-20T08:49:05;100982.44;;;11.03;86.81
22206;BME280;11272;50.104;8.754;2023-03-20T08:51:31;100984.31;;;10.96;87.63
22206;BME280;11272;50.104;8.754;2023-03-20T08:53:57;100984.34;;;10.93;88.53
22206;BME280;11272;50.104;8.754;2023-03-20T08:56:23;100986.19;;;10.88;89.01
22206;BME280;11272;50.104;8.754;2023-03-20T08:58:49;100986.28;;;10.84;90.04
22206;BME280;11272;50.104;8.754;2023-03-20T09:01:14;100989.75;;;10.87;90.66
22206;BME280;11272;50.104;8.754;2023-03-20T09:03:46;100997.66;;;10.92;91.50
22206;BME280;11272;50.104;8.754;2023-03-20T09:06:18;100996.63;;;11.01;92.15
22206;BME280;11272;50.104;8.754;2023-03-20T09:08:45;100996.69;;;10.97;92.17
22206;BME280;11272;50.104;8.754;2023-03-20T09:11:11;101005.63;;;10.93;93.45
22206;BME280;11272;50.104;8.754;2023-03-20T09:13:37;101009.94;;;11.01;93.89
22206;BME280;11272;50.104;8.754;2023-03-20T09:16:06;100999.19;;;11.08;94.58
22206;BME280;11272;50.104;8.754;2023-03-20T09:18:32;101000.00;;;11.15;95.05
22206;BME280;11272;50.104;8.754;2023-03-20T09:20:58;101001.69;;;11.19;95.05
22206;BME280;11272;50.104;8.754;2023-03-20T09:23:24;101009.78;;;11.11;94.90
22206;BME280;11272;50.104;8.754;2023-03-20T09:25:52;101005.38;;;11.10;95.99
22206;BME280;11272;50.104;8.754;2023-03-20T09:28:18;101000.84;;;11.17;96.66
22206;BME280;11272;50.104;8.754;2023-03-20T09:30:46;100999.88;;;11.22;96.43
22206;BME280;11272;50.104;8.754;2023-03-20T09:33:21;101001.66;;;11.22;97.07
22206;BME280;11272;50.104;8.754;2023-03-20T09:35:47;101010.41;;;11.30;97.36
22206;BME280;11272;50.104;8.754;2023-03-20T09:38:21;101010.41;;;11.30;97.27
22206;BME280;11272;50.104;8.754;2023-03-20T09:40:51;101006.78;;;11.34;97.75
22206;BME280;11272;50.104;8.754;2023-03-20T09:51:54;101008.22;;;12.08;100.00
22206;BME280;11272;50.104;8.754;2023-03-20T09:56:56;100999.59;;;12.42;99.06
22206;BME280;11272;50.104;8.754;2023-03-20T09:59:24;100998.28;;;12.61;100.00
22206;BME280;11272;50.104;8.754;2023-03-20T10:01:52;100998.13;;;13.12;100.00
22206;BME280;11272;50.104;8.754;2023-03-20T10:04:22;100998.91;;;13.54;100.00
22206;BME280;11272;50.104;8.754;2023-03-20T10:06:54;100998.75;;;13.60;99.04
22206;BME280;11272;50.104;8.754;2023-03-20T10:09:21;101002.63;;;13.83;100.00
22206;BME280;11272;50.104;8.754;2023-03-20T10:12:02;101005.63;;;14.04;99.98
22206;BME280;11272;50.104;8.754;2023-03-20T10:14:44;101000.09;;;14.44;100.00
22206;BME280;11272;50.104;8.754;2023-03-20T10:17:43;101002.03;;;14.69;98.22
22206;BME280;11272;50.104;8.754;2023-03-20T10:20:32;100993.25;;;14.95;96.50
22206;BME280;11272;50.104;8.754;2023-03-20T10:23:06;100986.81;;;15.84;99.12
22206;BME280;11272;50.104;8.754;2023-03-20T10:25:45;100999.84;;;16.20;93.27
22206;BME280;11272;50.104;8.754;2023-03-20T10:28:25;100995.94;;;16.04;90.44
22206;BME280;11272;50.104;8.754;2023-03-20T10:31:08;100997.88;;;16.00;90.21
22206;BME280;11272;50.104;8.754;2023-03-20T10:39:45;100981.41;;;16.35;85.23
22206;BME280;11272;50.104;8.754;2023-03-20T10:42:26;100981.31;;;16.38;84.41
22206;BME280;11272;50.104;8.754;2023-03-20T10:47:37;100970.69;;;17.29;82.91
22206;BME280;11272;50.104;8.754;2023-03-20T10:50:22;100963.38;;;17.54;78.96
22206;BME280;11272;50.104;8.754;2023-03-20T10:52:52;100963.63;;;17.26;76.78
22206;BME280;11272;50.104;8.754;2023-03-20T10:55:28;100958.06;;;16.87;77.43
22206;BME280;11272;50.104;8.754;2023-03-20T10:58:16;100961.00;;;16.79;76.36
22206;BME280;11272;50.104;8.754;2023-03-20T11:00:42;100962.44;;;16.66;75.95
22206;BME280;11272;50.104;8.754;2023-03-20T11:03:16;100958.25;;;17.26;76.42
22206;BME280;11272;50.104;8.754;2023-03-20T11:05:45;100949.84;;;17.57;73.54
22206;BME280;11272;50.104;8.754;2023-03-20T11:08:40;100954.91;;;17.85;71.50
22206;BME280;11272;50.104;8.754;2023-03-20T11:11:07;100939.88;;;17.81;68.54
22206;BME280;11272;50.104;8.754;2023-03-20T11:13:43;100946.53;;;17.92;67.16
22206;BME280;11272;50.104;8.754;2023-03-20T11:16:28;100934.75;;;18.35;66.44
22206;BME280;11272;50.104;8.754;2023-03-20T11:19:04;100942.94;;;18.52;63.93
22206;BME280;11272;50.104;8.754;2023-03-20T11:21:31;100946.34;;;18.37;62.56
22206;BME280;11272;50.104;8.754;2023-03-20T11:24:02;100952.22;;;17.85;60.96
22206;BME280;11272;50.104;8.754;2023-03-20T11:26:37;100942.53;;;17.39;61.42
22206;BME280;11272;50.104;8.754;2023-03-20T11:29:06;100947.84;;;17.18;61.78
22206;BME280;11272;50.104;8.754;2023-03-20T11:31:38;100943.59;;;17.13;61.49
22206;BME280;11272;50.104;8.754;2023-03-20T11:36:46;100936.41;;;16.92;61.07
22206;BME280;11272;50.104;8.754;2023-03-20T11:39:29;100935.53;;;16.91;60.77
22206;BME280;11272;50.104;8.754;2023-03-20T11:42:01;100932.03;;;17.33;60.20
22206;BME280;11272;50.104;8.754;2023-03-20T11:44:32;100925.56;;;17.58;58.56
22206;BME280;11272;50.104;8.754;2023-03-20T11:47:21;100918.91;;;17.68;59.50
22206;BME280;11272;50.104;8.754;2023-03-20T11:49:58;100920.34;;;17.97;58.84
22206;BME280;11272;50.104;8.754;2023-03-20T11:52:34;100922.03;;;18.00;57.92
22206;BME280;11272;50.104;8.754;2023-03-20T11:55:11;100908.50;;;17.81;58.06
22206;BME280;11272;50.104;8.754;2023-03-20T11:57:48;100918.38;;;18.01;58.19
22206;BME280;11272;50.104;8.754;2023-03-20T12:00:20;100903.97;;;18.22;57.37
22206;BME280;11272;50.104;8.754;2023-03-20T12:02:50;100914.09;;;17.97;56.47
22206;BME280;11272;50.104;8.754;2023-03-20T12:05:35;100906.78;;;17.58;56.51
22206;BME280;11272;50.104;8.754;2023-03-20T12:08:17;100900.97;;;17.47;57.29
22206;BME280;11272;50.104;8.754;2023-03-20T12:10:53;100895.53;;;17.71;56.56
22206;BME280;11272;50.104;8.754;2023-03-20T12:13:25;100890.91;;;17.52;56.92
22206;BME280;11272;50.104;8.754;2023-03-20T12:15:58;100890.34;;;17.24;57.20
22206;BME280;11272;50.104;8.754;2023-03-20T12:18:44;100887.22;;;17.13;57.00
22206;BME280;11272;50.104;8.754;2023-03-20T12:23:42;100883.97;;;16.83;57.33
22206;BME280;11272;50.104;8.754;2023-03-20T12:26:13;100876.00;;;17.03;57.61
22206;BME280;11272;50.104;8.754;2023-03-20T12:29:09;100875.03;;;17.04;56.66
22206;BME280;11272;50.104;8.754;2023-03-20T12:34:18;100870.53;;;16.38;57.26
22206;BME280;11272;50.104;8.754;2023-03-20T12:36:48;100869.22;;;16.25;57.51
22206;BME280;11272;50.104;8.754;2023-03-20T12:39:16;100867.19;;;16.08;58.01
22206;BME280;11272;50.104;8.754;2023-03-20T12:41:55;100861.13;;;16.03;58.29
22206;BME280;11272;50.104;8.754;2023-03-20T12:44:32;100864.66;;;16.04;58.10
22206;BME280;11272;50.104;8.754;2023-03-20T12:50:26;100854.66;;;16.09;58.44
22206;BME280;11272;50.104;8.754;2023-03-20T12:55:57;100854.25;;;15.96;58.50
22206;BME280;11272;50.104;8.754;2023-03-20T12:58:47;100851.25;;;15.80;58.54
22206;BME280;11272;50.104;8.754;2023-03-20T13:01:19;100850.16;;;15.61;58.91
22206;BME280;11272;50.104;8.754;2023-03-20T13:14:25;100829.97;;;16.00;58.86
22206;BME280;11272;50.104;8.754;2023-03-20T13:17:13;100833.78;;;16.18;59.00
22206;BME280;11272;50.104;8.754;2023-03-20T13:22:36;100828.66;;;16.57;57.71
22206;BME280;11272;50.104;8.754;2023-03-20T13:28:00;100814.44;;;16.55;56.42
22206;BME280;11272;50.104;8.754;2023-03-20T13:36:21;100809.44;;;16.46;55.54
22206;BME280;11272;50.104;8.754;2023-03-20T13:38:55;100796.34;;;16.38;55.22
22206;BME280;11272;50.104;8.754;2023-03-20T13:41:24;100802.59;;;16.39;55.04
22206;BME280;11272;50.104;8.754;2023-03-20T13:43:55;100799.06;;;16.37;54.74
22206;BME280;11272;50.104;8.754;2023-03-20T13:46:26;100813.41;;;16.36;54.60
22206;BME280;11272;50.104;8.754;2023-03-20T13:48:57;100799.69;;;16.22;53.99
22206;BME280;11272;50.104;8.754;2023-03-20T13:51:58;100806.44;;;16.09;54.19
22206;BME280;11272;50.104;8.754;2023-03-20T13:54:49;100804.81;;;16.05;54.22
22206;BME280;11272;50.104;8.754;2023-03-20T13:57:40;100812.63;;;16.11;53.79
22206;BME280;11272;50.104;8.754;2023-03-20T14:03:13;100799.03;;;16.15;52.88
22206;BME280;11272;50.104;8.754;2023-03-20T14:05:43;100803.75;;;16.09;51.89
22206;BME280;11272;50.104;8.754;2023-03-20T14:13:32;100794.84;;;15.85;50.57
22206;BME280;11272;50.104;8.754;2023-03-20T14:16:02;100789.53;;;15.83;49.84
22206;BME280;11272;50.104;8.754;2023-03-20T14:18:29;100792.22;;;15.83;49.76
22206;BME280;11272;50.104;8.754;2023-03-20T14:21:01;100786.75;;;15.86;49.64
22206;BME280;11272;50.104;8.754;2023-03-20T14:23:32;100783.97;;;15.89;49.24
22206;BME280;11272;50.104;8.754;2023-03-20T14:25:59;100795.38;;;15.94;49.41
22206;BME280;11272;50.104;8.754;2023-03-20T14:28:28;100793.34;;;16.01;48.77
22206;BME280;11272;50.104;8.754;2023-03-20T14:31:19;100794.22;;;16.02;48.29
22206;BME280;11272;50.104;8.754;2023-03-20T14:34:00;100793.28;;;16.03;47.45
22206;BME280;11272;50.104;8.754;2023-03-20T14:36:58;100794.50;;;15.94;46.93
22206;BME280;11272;50.104;8.754;2023-03-20T14:39:42;100796.06;;;15.99;47.37
22206;BME280;11272;50.104;8.754;2023-03-20T14:42:20;100792.22;;;16.07;46.80
22206;BME280;11272;50.104;8.754;2023-03-20T14:51:10;100795.72;;;16.09;46.92
22206;BME280;11272;50.104;8.754;2023-03-20T14:53:39;100798.28;;;16.12;46.96
22206;BME280;11272;50.104;8.754;2023-03-20T14:56:07;100794.78;;;16.10;46.09
22206;BME280;11272;50.104;8.754;2023-03-20T14:58:41;100793.34;;;16.01;46.53
22206;BME280;11272;50.104;8.754;2023-03-20T15:06:55;100800.91;;;15.90;47.01